UAL411 KSAT-KMSY
Flight info
| Callsign | UAL411 |
|---|---|
| Flight time | 1h 14m |
| Altitude | 39000 |
| Route | SNIDR1 MOLLR Q24 LCH AWDAD1 |
| Aircraft | A20N/M-SDE2E3FGHIRWXY/LB1 |
Departure
| Time | 2026-04-25 20:24 |
|---|---|
| Airport | San Antonio International Airport (KSAT) |
Arrival
| Time | 2026-04-25 21:39 |
|---|---|
| Airport | Louis Armstrong New Orleans International Airport (KMSY) |
| Time | Latitude | Longitude | Altitude | Speed | Heading |
|---|---|---|---|---|---|
| 2026-04-25 20:01 | 29.52672 | -98.47013 | 808 ft | 0 kts | 311° |
| 2026-04-25 20:11 | 29.52667 | -98.47007 | 804 ft | 1 kts | 306° |
| 2026-04-25 20:11 | 29.52661 | -98.46996 | 813 ft | 2 kts | 291° |
| 2026-04-25 20:12 | 29.52657 | -98.46982 | 797 ft | 2 kts | 276° |
| 2026-04-25 20:12 | 29.52656 | -98.46966 | 798 ft | 2 kts | 260° |
| 2026-04-25 20:12 | 29.52660 | -98.46951 | 764 ft | 2 kts | 238° |
| 2026-04-25 20:12 | 29.52663 | -98.46946 | 770 ft | 2 kts | 232° |
| 2026-04-25 20:13 | 29.52670 | -98.46937 | 771 ft | 0 kts | 221° |
| 2026-04-25 20:14 | 29.52668 | -98.46938 | 769 ft | 2 kts | 221° |
| 2026-04-25 20:15 | 29.52639 | -98.46968 | 784 ft | 9 kts | 221° |
| 2026-04-25 20:15 | 29.52577 | -98.47034 | 783 ft | 14 kts | 225° |
| 2026-04-25 20:15 | 29.52501 | -98.47108 | 783 ft | 15 kts | 217° |
| 2026-04-25 20:15 | 29.52417 | -98.47088 | 782 ft | 14 kts | 130° |
| 2026-04-25 20:16 | 29.52393 | -98.47057 | 781 ft | 0 kts | 134° |
| 2026-04-25 20:22 | 29.52390 | -98.47053 | 781 ft | 3 kts | 134° |
| 2026-04-25 20:22 | 29.52360 | -98.47012 | 782 ft | 10 kts | 116° |
| 2026-04-25 20:23 | 29.52389 | -98.46926 | 782 ft | 15 kts | 43° |
| 2026-04-25 20:23 | 29.52400 | -98.46916 | 782 ft | 0 kts | 39° |
| 2026-04-25 20:23 | 29.52471 | -98.46840 | 783 ft | 45 kts | 39° |
| 2026-04-25 20:23 | 29.52887 | -98.46417 | 785 ft | 112 kts | 41° |
| 2026-04-25 20:24 | 29.53607 | -98.45694 | 805 ft | 161 kts | 45° |
| 2026-04-25 20:24 | 29.54510 | -98.44836 | 1187 ft | 178 kts | 41° |
| 2026-04-25 20:24 | 29.55594 | -98.43858 | 1673 ft | 210 kts | 39° |
| 2026-04-25 20:24 | 29.56837 | -98.42766 | 2204 ft | 244 kts | 40° |
| 2026-04-25 20:25 | 29.58056 | -98.41324 | 2729 ft | 259 kts | 64° |
| 2026-04-25 20:25 | 29.58678 | -98.39339 | 3347 ft | 270 kts | 81° |
| 2026-04-25 20:25 | 29.58903 | -98.37918 | 3907 ft | 274 kts | 84° |
| 2026-04-25 20:25 | 29.59185 | -98.35708 | 4874 ft | 277 kts | 84° |
| 2026-04-25 20:26 | 29.59483 | -98.33492 | 5744 ft | 282 kts | 83° |
| 2026-04-25 20:26 | 29.59828 | -98.31251 | 6593 ft | 289 kts | 81° |
| 2026-04-25 20:26 | 29.60211 | -98.28992 | 7402 ft | 293 kts | 80° |
| 2026-04-25 20:26 | 29.60616 | -98.26693 | 8258 ft | 296 kts | 79° |
| 2026-04-25 20:27 | 29.61035 | -98.24345 | 9054 ft | 303 kts | 79° |
| 2026-04-25 20:27 | 29.61465 | -98.21942 | 9802 ft | 308 kts | 78° |
| 2026-04-25 20:27 | 29.61902 | -98.19503 | 10515 ft | 317 kts | 78° |
| 2026-04-25 20:27 | 29.62361 | -98.16935 | 10787 ft | 341 kts | 78° |
| 2026-04-25 20:28 | 29.62850 | -98.14188 | 11090 ft | 360 kts | 78° |
| 2026-04-25 20:28 | 29.63356 | -98.11340 | 11736 ft | 367 kts | 78° |
| 2026-04-25 20:28 | 29.63869 | -98.08447 | 12499 ft | 371 kts | 78° |
| 2026-04-25 20:28 | 29.64388 | -98.05515 | 13218 ft | 376 kts | 78° |
| 2026-04-25 20:29 | 29.64893 | -98.02544 | 13887 ft | 382 kts | 81° |
| 2026-04-25 20:29 | 29.65106 | -97.99483 | 14525 ft | 388 kts | 89° |
| 2026-04-25 20:29 | 29.65136 | -97.96354 | 15155 ft | 393 kts | 89° |
| 2026-04-25 20:29 | 29.65176 | -97.93200 | 15753 ft | 398 kts | 89° |
| 2026-04-25 20:30 | 29.65222 | -97.89994 | 16348 ft | 404 kts | 89° |
| 2026-04-25 20:30 | 29.65269 | -97.86751 | 16964 ft | 409 kts | 89° |
| 2026-04-25 20:30 | 29.65317 | -97.83458 | 17567 ft | 414 kts | 89° |
| 2026-04-25 20:30 | 29.65361 | -97.80143 | 18272 ft | 414 kts | 89° |
| 2026-04-25 20:31 | 29.65399 | -97.76857 | 19170 ft | 405 kts | 89° |
| 2026-04-25 20:31 | 29.65433 | -97.73681 | 20312 ft | 388 kts | 88° |
| 2026-04-25 20:31 | 29.65463 | -97.70661 | 21547 ft | 371 kts | 88° |
| 2026-04-25 20:31 | 29.65495 | -97.67675 | 22000 ft | 381 kts | 88° |
| 2026-04-25 20:32 | 29.65530 | -97.64563 | 22153 ft | 397 kts | 88° |
| 2026-04-25 20:32 | 29.65566 | -97.61339 | 22309 ft | 412 kts | 88° |
| 2026-04-25 20:32 | 29.65601 | -97.57990 | 22460 ft | 427 kts | 88° |
| 2026-04-25 20:32 | 29.65635 | -97.54512 | 22622 ft | 441 kts | 88° |
| 2026-04-25 20:33 | 29.65669 | -97.50941 | 22765 ft | 455 kts | 88° |
| 2026-04-25 20:33 | 29.65702 | -97.47259 | 23109 ft | 463 kts | 88° |
| 2026-04-25 20:33 | 29.65733 | -97.43547 | 23568 ft | 466 kts | 88° |
| 2026-04-25 20:33 | 29.65753 | -97.41067 | 23866 ft | 468 kts | 88° |
| 2026-04-25 20:34 | 29.65794 | -97.36039 | 24445 ft | 473 kts | 87° |
| 2026-04-25 20:34 | 29.65825 | -97.32249 | 24872 ft | 477 kts | 87° |
| 2026-04-25 20:34 | 29.65854 | -97.28413 | 25291 ft | 480 kts | 87° |
| 2026-04-25 20:34 | 29.65883 | -97.24569 | 25702 ft | 483 kts | 87° |
| 2026-04-25 20:35 | 29.65910 | -97.20683 | 26105 ft | 487 kts | 87° |
| 2026-04-25 20:35 | 29.65936 | -97.16762 | 26503 ft | 490 kts | 87° |
| 2026-04-25 20:35 | 29.65945 | -97.15259 | 26649 ft | 492 kts | 87° |
| 2026-04-25 20:35 | 29.65959 | -97.13005 | 26872 ft | 494 kts | 87° |
| 2026-04-25 20:36 | 29.65982 | -97.09098 | 27251 ft | 497 kts | 87° |
| 2026-04-25 20:36 | 29.66004 | -97.05061 | 27630 ft | 500 kts | 87° |
| 2026-04-25 20:36 | 29.66025 | -97.01059 | 27978 ft | 503 kts | 87° |
| 2026-04-25 20:36 | 29.66047 | -96.97033 | 28318 ft | 506 kts | 87° |
| 2026-04-25 20:37 | 29.66069 | -96.92981 | 28652 ft | 509 kts | 87° |
| 2026-04-25 20:37 | 29.66090 | -96.88886 | 28988 ft | 511 kts | 87° |
| 2026-04-25 20:37 | 29.66110 | -96.84785 | 29308 ft | 514 kts | 87° |
| 2026-04-25 20:37 | 29.66129 | -96.80727 | 29622 ft | 517 kts | 87° |
| 2026-04-25 20:38 | 29.66146 | -96.76515 | 29921 ft | 520 kts | 87° |
| 2026-04-25 20:38 | 29.66161 | -96.72403 | 30207 ft | 522 kts | 87° |
| 2026-04-25 20:38 | 29.66176 | -96.68174 | 30469 ft | 525 kts | 87° |
| 2026-04-25 20:38 | 29.66188 | -96.64005 | 30733 ft | 528 kts | 87° |
| 2026-04-25 20:39 | 29.66200 | -96.59785 | 31065 ft | 528 kts | 87° |
| 2026-04-25 20:39 | 29.66211 | -96.55559 | 31470 ft | 528 kts | 87° |
| 2026-04-25 20:39 | 29.66220 | -96.51325 | 31821 ft | 529 kts | 87° |
| 2026-04-25 20:39 | 29.66225 | -96.48521 | 32061 ft | 529 kts | 87° |
| 2026-04-25 20:40 | 29.66221 | -96.42880 | 32558 ft | 529 kts | 87° |
| 2026-04-25 20:40 | 29.66214 | -96.38655 | 32891 ft | 529 kts | 87° |
| 2026-04-25 20:40 | 29.66206 | -96.34414 | 33224 ft | 529 kts | 87° |
| 2026-04-25 20:40 | 29.66198 | -96.30179 | 33535 ft | 529 kts | 87° |
| 2026-04-25 20:41 | 29.66188 | -96.25959 | 33839 ft | 529 kts | 87° |
| 2026-04-25 20:41 | 29.66178 | -96.21724 | 34108 ft | 529 kts | 87° |
| 2026-04-25 20:41 | 29.66166 | -96.17500 | 34354 ft | 529 kts | 87° |
| 2026-04-25 20:41 | 29.66152 | -96.13256 | 34584 ft | 525 kts | 87° |
| 2026-04-25 20:42 | 29.66136 | -96.09095 | 34422 ft | 519 kts | 87° |
| 2026-04-25 20:42 | 29.66121 | -96.04940 | 34333 ft | 521 kts | 87° |
| 2026-04-25 20:42 | 29.66089 | -95.96518 | 34567 ft | 529 kts | 87° |
| 2026-04-25 20:43 | 29.66069 | -95.92294 | 34817 ft | 529 kts | 87° |
| 2026-04-25 20:43 | 29.66047 | -95.88057 | 35067 ft | 529 kts | 87° |
| 2026-04-25 20:43 | 29.66025 | -95.83850 | 35301 ft | 529 kts | 87° |
| 2026-04-25 20:43 | 29.66001 | -95.79617 | 35539 ft | 529 kts | 87° |
| 2026-04-25 20:44 | 29.65975 | -95.75384 | 35786 ft | 529 kts | 87° |
| 2026-04-25 20:44 | 29.65945 | -95.71134 | 36003 ft | 529 kts | 87° |
| 2026-04-25 20:44 | 29.65906 | -95.66919 | 36244 ft | 528 kts | 87° |
| 2026-04-25 20:44 | 29.65864 | -95.62689 | 36464 ft | 528 kts | 87° |
| 2026-04-25 20:45 | 29.65822 | -95.58472 | 36652 ft | 528 kts | 87° |
| 2026-04-25 20:45 | 29.65779 | -95.54237 | 36853 ft | 529 kts | 86° |
| 2026-04-25 20:45 | 29.65741 | -95.50010 | 37064 ft | 528 kts | 86° |
| 2026-04-25 20:45 | 29.65709 | -95.45799 | 37256 ft | 528 kts | 86° |
| 2026-04-25 20:46 | 29.65678 | -95.41578 | 37445 ft | 528 kts | 86° |
| 2026-04-25 20:46 | 29.65644 | -95.37347 | 37627 ft | 529 kts | 86° |
| 2026-04-25 20:46 | 29.65609 | -95.33125 | 37827 ft | 529 kts | 86° |
| 2026-04-25 20:46 | 29.65710 | -95.28902 | 38000 ft | 524 kts | 79° |
| 2026-04-25 20:47 | 29.66251 | -95.24784 | 38149 ft | 517 kts | 70° |
| 2026-04-25 20:47 | 29.67143 | -95.20853 | 38282 ft | 514 kts | 68° |
| 2026-04-25 20:47 | 29.68089 | -95.16829 | 38443 ft | 514 kts | 68° |
| 2026-04-25 20:47 | 29.68998 | -95.12915 | 38575 ft | 514 kts | 68° |
| 2026-04-25 20:48 | 29.69919 | -95.08931 | 38700 ft | 514 kts | 68° |
| 2026-04-25 20:48 | 29.70835 | -95.04963 | 38827 ft | 514 kts | 68° |
| 2026-04-25 20:48 | 29.72668 | -94.97015 | 38843 ft | 513 kts | 68° |
| 2026-04-25 20:49 | 29.74494 | -94.89082 | 38847 ft | 515 kts | 68° |
| 2026-04-25 20:49 | 29.76158 | -94.81042 | 38850 ft | 522 kts | 77° |
| 2026-04-25 20:50 | 29.77032 | -94.72715 | 38848 ft | 523 kts | 77° |
| 2026-04-25 20:50 | 29.77897 | -94.64413 | 38851 ft | 523 kts | 77° |
| 2026-04-25 20:51 | 29.78776 | -94.56082 | 38862 ft | 523 kts | 77° |
| 2026-04-25 20:51 | 29.79649 | -94.47763 | 38863 ft | 523 kts | 77° |
| 2026-04-25 20:52 | 29.80368 | -94.40869 | 38862 ft | 523 kts | 77° |
| 2026-04-25 20:52 | 29.81372 | -94.31160 | 38859 ft | 522 kts | 77° |
| 2026-04-25 20:53 | 29.82226 | -94.22855 | 38866 ft | 522 kts | 77° |
| 2026-04-25 20:53 | 29.83072 | -94.14557 | 38866 ft | 519 kts | 77° |
| 2026-04-25 20:54 | 29.83910 | -94.06306 | 38868 ft | 519 kts | 77° |
| 2026-04-25 20:54 | 29.84746 | -93.98035 | 38869 ft | 520 kts | 77° |
| 2026-04-25 20:55 | 29.85575 | -93.89758 | 38868 ft | 520 kts | 77° |
| 2026-04-25 20:55 | 29.86397 | -93.81502 | 38862 ft | 519 kts | 77° |
| 2026-04-25 20:56 | 29.87206 | -93.73294 | 38317 ft | 512 kts | 77° |
| 2026-04-25 20:56 | 29.87609 | -93.69213 | 37657 ft | 512 kts | 77° |
| 2026-04-25 20:56 | 29.88010 | -93.65146 | 36961 ft | 512 kts | 78° |
| 2026-04-25 20:57 | 29.88412 | -93.61058 | 36271 ft | 512 kts | 78° |
| 2026-04-25 20:57 | 29.88810 | -93.56993 | 35594 ft | 511 kts | 78° |
| 2026-04-25 20:57 | 29.89207 | -93.52928 | 34942 ft | 511 kts | 79° |
| 2026-04-25 20:57 | 29.89604 | -93.48843 | 34294 ft | 511 kts | 79° |
| 2026-04-25 20:58 | 29.89998 | -93.44776 | 33600 ft | 510 kts | 79° |
| 2026-04-25 20:58 | 29.90385 | -93.40766 | 32882 ft | 510 kts | 79° |
| 2026-04-25 20:58 | 29.90776 | -93.36708 | 32141 ft | 510 kts | 80° |
| 2026-04-25 20:58 | 29.91169 | -93.32607 | 31399 ft | 510 kts | 80° |
| 2026-04-25 20:59 | 29.91552 | -93.28590 | 30644 ft | 509 kts | 80° |
| 2026-04-25 20:59 | 29.91938 | -93.24536 | 29971 ft | 507 kts | 81° |
| 2026-04-25 20:59 | 29.92318 | -93.20517 | 29334 ft | 502 kts | 81° |
| 2026-04-25 20:59 | 29.92698 | -93.16479 | 28696 ft | 497 kts | 81° |
| 2026-04-25 21:00 | 29.93067 | -93.12550 | 28078 ft | 492 kts | 81° |
| 2026-04-25 21:00 | 29.93188 | -93.11268 | 27876 ft | 491 kts | 81° |
| 2026-04-25 21:00 | 29.94153 | -93.00939 | 26373 ft | 477 kts | 81° |
| 2026-04-25 21:01 | 29.94500 | -92.97207 | 25801 ft | 473 kts | 81° |
| 2026-04-25 21:01 | 29.94848 | -92.93451 | 25258 ft | 469 kts | 81° |
| 2026-04-25 21:01 | 29.95192 | -92.89731 | 24741 ft | 465 kts | 81° |
| 2026-04-25 21:01 | 29.95533 | -92.86023 | 24220 ft | 461 kts | 82° |
| 2026-04-25 21:02 | 29.95866 | -92.82382 | 23922 ft | 455 kts | 82° |
| 2026-04-25 21:02 | 29.96199 | -92.78747 | 23630 ft | 455 kts | 82° |
| 2026-04-25 21:02 | 29.96530 | -92.75122 | 23136 ft | 454 kts | 82° |
| 2026-04-25 21:02 | 29.96859 | -92.71508 | 22550 ft | 450 kts | 82° |
| 2026-04-25 21:03 | 29.97181 | -92.67946 | 21974 ft | 446 kts | 82° |
| 2026-04-25 21:03 | 29.97501 | -92.64399 | 21392 ft | 442 kts | 82° |
| 2026-04-25 21:03 | 29.97818 | -92.60881 | 20826 ft | 439 kts | 82° |
| 2026-04-25 21:03 | 29.98131 | -92.57392 | 20266 ft | 435 kts | 82° |
| 2026-04-25 21:04 | 29.98335 | -92.55113 | 19922 ft | 432 kts | 82° |
| 2026-04-25 21:04 | 29.98643 | -92.51669 | 19400 ft | 429 kts | 82° |
| 2026-04-25 21:04 | 29.98946 | -92.48267 | 18859 ft | 426 kts | 82° |
| 2026-04-25 21:04 | 29.99247 | -92.44869 | 18339 ft | 422 kts | 82° |
| 2026-04-25 21:05 | 29.99544 | -92.41507 | 17782 ft | 419 kts | 82° |
| 2026-04-25 21:05 | 29.99837 | -92.38192 | 17272 ft | 413 kts | 82° |
| 2026-04-25 21:05 | 30.00125 | -92.34921 | 16767 ft | 408 kts | 82° |
| 2026-04-25 21:05 | 30.00410 | -92.31673 | 16262 ft | 404 kts | 82° |
| 2026-04-25 21:06 | 30.00690 | -92.28474 | 15783 ft | 399 kts | 82° |
| 2026-04-25 21:06 | 30.00967 | -92.25310 | 15312 ft | 394 kts | 82° |
| 2026-04-25 21:06 | 30.01239 | -92.22182 | 14847 ft | 390 kts | 83° |
| 2026-04-25 21:06 | 30.01418 | -92.20123 | 14532 ft | 387 kts | 83° |
| 2026-04-25 21:07 | 30.01773 | -92.16027 | 13920 ft | 381 kts | 83° |
| 2026-04-25 21:07 | 30.02035 | -92.12998 | 13428 ft | 378 kts | 83° |
| 2026-04-25 21:07 | 30.02294 | -92.09995 | 12960 ft | 374 kts | 83° |
| 2026-04-25 21:07 | 30.02548 | -92.07035 | 12456 ft | 370 kts | 83° |
| 2026-04-25 21:08 | 30.02798 | -92.04104 | 11963 ft | 366 kts | 83° |
| 2026-04-25 21:08 | 30.03047 | -92.01193 | 11458 ft | 363 kts | 83° |
| 2026-04-25 21:08 | 30.03293 | -91.98319 | 11115 ft | 355 kts | 84° |
| 2026-04-25 21:08 | 30.03534 | -91.95474 | 11011 ft | 358 kts | 83° |
| 2026-04-25 21:09 | 30.04020 | -91.89725 | 10994 ft | 360 kts | 84° |
| 2026-04-25 21:09 | 30.04265 | -91.86824 | 10994 ft | 366 kts | 84° |
| 2026-04-25 21:09 | 30.04513 | -91.83865 | 10992 ft | 363 kts | 84° |
| 2026-04-25 21:10 | 30.04751 | -91.81023 | 10992 ft | 360 kts | 83° |
| 2026-04-25 21:10 | 30.04993 | -91.78120 | 10991 ft | 365 kts | 84° |
| 2026-04-25 21:10 | 30.05238 | -91.75177 | 10989 ft | 362 kts | 84° |
| 2026-04-25 21:10 | 30.05477 | -91.72286 | 10994 ft | 363 kts | 84° |
| 2026-04-25 21:11 | 30.05715 | -91.69418 | 10995 ft | 364 kts | 84° |
| 2026-04-25 21:11 | 30.05955 | -91.66516 | 10994 ft | 362 kts | 84° |
| 2026-04-25 21:11 | 30.06196 | -91.63586 | 10994 ft | 366 kts | 84° |
| 2026-04-25 21:11 | 30.06435 | -91.60698 | 10990 ft | 362 kts | 84° |
| 2026-04-25 21:12 | 30.06675 | -91.57770 | 10992 ft | 362 kts | 84° |
| 2026-04-25 21:12 | 30.06909 | -91.54904 | 10992 ft | 365 kts | 84° |
| 2026-04-25 21:12 | 30.07146 | -91.52004 | 10995 ft | 361 kts | 84° |
| 2026-04-25 21:12 | 30.07305 | -91.50051 | 10994 ft | 361 kts | 83° |
| 2026-04-25 21:13 | 30.07616 | -91.46208 | 10994 ft | 362 kts | 84° |
| 2026-04-25 21:13 | 30.07851 | -91.43310 | 10994 ft | 362 kts | 83° |
| 2026-04-25 21:13 | 30.08084 | -91.40411 | 10993 ft | 362 kts | 84° |
| 2026-04-25 21:13 | 30.08317 | -91.37527 | 10992 ft | 361 kts | 83° |
| 2026-04-25 21:14 | 30.08550 | -91.34622 | 10994 ft | 363 kts | 83° |
| 2026-04-25 21:14 | 30.08782 | -91.31725 | 10993 ft | 363 kts | 83° |
| 2026-04-25 21:14 | 30.09013 | -91.28830 | 10995 ft | 363 kts | 83° |
| 2026-04-25 21:14 | 30.09244 | -91.25933 | 10994 ft | 363 kts | 84° |
| 2026-04-25 21:15 | 30.09473 | -91.23051 | 10995 ft | 353 kts | 84° |
| 2026-04-25 21:15 | 30.09690 | -91.20290 | 10990 ft | 336 kts | 84° |
| 2026-04-25 21:15 | 30.09896 | -91.17678 | 10993 ft | 319 kts | 83° |
| 2026-04-25 21:15 | 30.10092 | -91.15175 | 10995 ft | 310 kts | 83° |
| 2026-04-25 21:16 | 30.10291 | -91.12655 | 10994 ft | 319 kts | 83° |
| 2026-04-25 21:16 | 30.10492 | -91.10110 | 10991 ft | 316 kts | 83° |
| 2026-04-25 21:16 | 30.10691 | -91.07572 | 10996 ft | 317 kts | 83° |
| 2026-04-25 21:16 | 30.10890 | -91.05045 | 10996 ft | 316 kts | 83° |
| 2026-04-25 21:17 | 30.11087 | -91.02507 | 10999 ft | 317 kts | 83° |
| 2026-04-25 21:17 | 30.11283 | -90.99976 | 10996 ft | 316 kts | 83° |
| 2026-04-25 21:17 | 30.11481 | -90.97437 | 10996 ft | 317 kts | 83° |
| 2026-04-25 21:17 | 30.11601 | -90.94900 | 10996 ft | 317 kts | 90° |
| 2026-04-25 21:18 | 30.11421 | -90.92354 | 10997 ft | 318 kts | 95° |
| 2026-04-25 21:18 | 30.11213 | -90.89849 | 10999 ft | 318 kts | 94° |
| 2026-04-25 21:18 | 30.11012 | -90.87268 | 10995 ft | 318 kts | 94° |
| 2026-04-25 21:18 | 30.10819 | -90.84753 | 11000 ft | 318 kts | 94° |
| 2026-04-25 21:19 | 30.10621 | -90.82209 | 10999 ft | 318 kts | 94° |
| 2026-04-25 21:19 | 30.10421 | -90.79670 | 11000 ft | 318 kts | 94° |
| 2026-04-25 21:19 | 30.10218 | -90.77126 | 11002 ft | 318 kts | 94° |
| 2026-04-25 21:19 | 30.10014 | -90.74577 | 11003 ft | 320 kts | 94° |
| 2026-04-25 21:20 | 30.09810 | -90.72021 | 11006 ft | 320 kts | 94° |
| 2026-04-25 21:20 | 30.09650 | -90.70288 | 11003 ft | 320 kts | 98° |
| 2026-04-25 21:20 | 30.08932 | -90.66986 | 11006 ft | 321 kts | 105° |
| 2026-04-25 21:20 | 30.08345 | -90.64505 | 11003 ft | 320 kts | 105° |
| 2026-04-25 21:21 | 30.07764 | -90.62032 | 10860 ft | 318 kts | 105° |
| 2026-04-25 21:21 | 30.07176 | -90.59550 | 10428 ft | 321 kts | 105° |
| 2026-04-25 21:21 | 30.06574 | -90.57026 | 9684 ft | 333 kts | 105° |
| 2026-04-25 21:21 | 30.05939 | -90.54378 | 8555 ft | 352 kts | 105° |
| 2026-04-25 21:22 | 30.05262 | -90.51558 | 7177 ft | 378 kts | 106° |
| 2026-04-25 21:22 | 30.04533 | -90.48557 | 5856 ft | 394 kts | 106° |
| 2026-04-25 21:22 | 30.03818 | -90.45518 | 5050 ft | 386 kts | 105° |
| 2026-04-25 21:22 | 30.03117 | -90.42580 | 4577 ft | 375 kts | 106° |
| 2026-04-25 21:23 | 30.02439 | -90.39748 | 4214 ft | 355 kts | 106° |
| 2026-04-25 21:23 | 30.01786 | -90.37026 | 3466 ft | 355 kts | 107° |
| 2026-04-25 21:23 | 30.01124 | -90.34273 | 2709 ft | 360 kts | 107° |
| 2026-04-25 21:23 | 30.00390 | -90.31536 | 2279 ft | 351 kts | 117° |
| 2026-04-25 21:24 | 29.99022 | -90.29312 | 2082 ft | 330 kts | 139° |
| 2026-04-25 21:24 | 29.97157 | -90.27975 | 2012 ft | 306 kts | 163° |
| 2026-04-25 21:24 | 29.95140 | -90.27666 | 2011 ft | 285 kts | 188° |
| 2026-04-25 21:24 | 29.93274 | -90.28200 | 2007 ft | 267 kts | 198° |
| 2026-04-25 21:25 | 29.91542 | -90.28821 | 2002 ft | 256 kts | 199° |
| 2026-04-25 21:25 | 29.89871 | -90.29407 | 2015 ft | 251 kts | 199° |
| 2026-04-25 21:25 | 29.88166 | -90.30008 | 2002 ft | 256 kts | 199° |
| 2026-04-25 21:25 | 29.86474 | -90.30606 | 2010 ft | 253 kts | 199° |
| 2026-04-25 21:26 | 29.84800 | -90.31185 | 2011 ft | 251 kts | 199° |
| 2026-04-25 21:26 | 29.83116 | -90.31770 | 1994 ft | 253 kts | 198° |
| 2026-04-25 21:26 | 29.81434 | -90.32364 | 1999 ft | 251 kts | 199° |
| 2026-04-25 21:26 | 29.79789 | -90.32952 | 2003 ft | 242 kts | 199° |
| 2026-04-25 21:27 | 29.78227 | -90.33502 | 2000 ft | 227 kts | 199° |
| 2026-04-25 21:27 | 29.76765 | -90.34005 | 2004 ft | 212 kts | 198° |
| 2026-04-25 21:27 | 29.75499 | -90.34690 | 2009 ft | 194 kts | 224° |
| 2026-04-25 21:27 | 29.74848 | -90.36018 | 2032 ft | 198 kts | 261° |
| 2026-04-25 21:28 | 29.75080 | -90.37629 | 2749 ft | 213 kts | 288° |
| 2026-04-25 21:28 | 29.75968 | -90.39170 | 2881 ft | 251 kts | 314° |
| 2026-04-25 21:28 | 29.77346 | -90.40470 | 2521 ft | 257 kts | 319° |
| 2026-04-25 21:28 | 29.78748 | -90.41755 | 2153 ft | 258 kts | 319° |
| 2026-04-25 21:29 | 29.80161 | -90.43046 | 2003 ft | 264 kts | 319° |
| 2026-04-25 21:29 | 29.81605 | -90.44346 | 1997 ft | 262 kts | 319° |
| 2026-04-25 21:29 | 29.83032 | -90.45664 | 2011 ft | 264 kts | 319° |
| 2026-04-25 21:29 | 29.84455 | -90.46981 | 2002 ft | 260 kts | 319° |
| 2026-04-25 21:30 | 29.85863 | -90.48293 | 2015 ft | 260 kts | 319° |
| 2026-04-25 21:30 | 29.87294 | -90.49605 | 1991 ft | 265 kts | 319° |
| 2026-04-25 21:30 | 29.88734 | -90.50928 | 1998 ft | 267 kts | 321° |
| 2026-04-25 21:30 | 29.89806 | -90.51593 | 2000 ft | 261 kts | 340° |
| 2026-04-25 21:31 | 29.92295 | -90.51828 | 1990 ft | 274 kts | 359° |
| 2026-04-25 21:31 | 29.94180 | -90.51794 | 2007 ft | 270 kts | 358° |
| 2026-04-25 21:31 | 29.96031 | -90.51751 | 1984 ft | 271 kts | 359° |
| 2026-04-25 21:31 | 29.97944 | -90.51703 | 1999 ft | 272 kts | 359° |
| 2026-04-25 21:32 | 29.99816 | -90.51672 | 2003 ft | 268 kts | 358° |
| 2026-04-25 21:32 | 30.01663 | -90.51635 | 1983 ft | 270 kts | 359° |
| 2026-04-25 21:32 | 30.03557 | -90.51601 | 1997 ft | 268 kts | 359° |
| 2026-04-25 21:32 | 30.05407 | -90.51578 | 2000 ft | 270 kts | 359° |
| 2026-04-25 21:33 | 30.07284 | -90.51546 | 2003 ft | 269 kts | 359° |
| 2026-04-25 21:33 | 30.09131 | -90.51180 | 1992 ft | 273 kts | 22° |
| 2026-04-25 21:33 | 30.10663 | -90.49886 | 1997 ft | 279 kts | 50° |
| 2026-04-25 21:33 | 30.11535 | -90.47914 | 1990 ft | 276 kts | 78° |
| 2026-04-25 21:34 | 30.11561 | -90.45771 | 1999 ft | 262 kts | 106° |
| 2026-04-25 21:34 | 30.10785 | -90.43949 | 1986 ft | 242 kts | 133° |
| 2026-04-25 21:34 | 30.09578 | -90.42798 | 1992 ft | 212 kts | 157° |
| 2026-04-25 21:34 | 30.08171 | -90.42221 | 2010 ft | 219 kts | 168° |
| 2026-04-25 21:35 | 30.06771 | -90.41749 | 1988 ft | 196 kts | 167° |
| 2026-04-25 21:35 | 30.05553 | -90.41316 | 2000 ft | 172 kts | 167° |
| 2026-04-25 21:35 | 30.04467 | -90.40922 | 2010 ft | 156 kts | 167° |
| 2026-04-25 21:35 | 30.03463 | -90.40557 | 1995 ft | 151 kts | 163° |
| 2026-04-25 21:36 | 30.02611 | -90.39817 | 1914 ft | 158 kts | 129° |
| 2026-04-25 21:36 | 30.02131 | -90.38639 | 1725 ft | 168 kts | 111° |
| 2026-04-25 21:36 | 30.01815 | -90.37310 | 1528 ft | 172 kts | 107° |
| 2026-04-25 21:36 | 30.01517 | -90.35977 | 1313 ft | 171 kts | 108° |
| 2026-04-25 21:37 | 30.01214 | -90.34665 | 1097 ft | 166 kts | 108° |
| 2026-04-25 21:37 | 30.01119 | -90.34253 | 1027 ft | 163 kts | 108° |
| 2026-04-25 21:37 | 30.00641 | -90.32260 | 703 ft | 151 kts | 107° |
| 2026-04-25 21:37 | 30.00357 | -90.31079 | 528 ft | 152 kts | 108° |
| 2026-04-25 21:38 | 30.00086 | -90.29939 | 337 ft | 147 kts | 108° |
| 2026-04-25 21:38 | 29.99812 | -90.28811 | 160 ft | 143 kts | 108° |
| 2026-04-25 21:38 | 29.99559 | -90.27714 | 26 ft | 140 kts | 107° |
| 2026-04-25 21:38 | 29.99329 | -90.26770 | 16 ft | 86 kts | 107° |
| 2026-04-25 21:39 | 29.99245 | -90.26432 | 15 ft | 13 kts | 109° |
| 2026-04-25 21:39 | 29.99194 | -90.26225 | 10 ft | 34 kts | 106° |
| 2026-04-25 21:39 | 29.99121 | -90.25940 | 14 ft | 37 kts | 108° |
| 2026-04-25 21:39 | 29.99020 | -90.25720 | 16 ft | 9 kts | 124° |
| 2026-04-25 21:40 | 29.99013 | -90.25710 | 17 ft | 3 kts | 127° |
| 2026-04-25 21:40 | 29.98999 | -90.25695 | 16 ft | 0 kts | 151° |
| 2026-04-25 21:41 | 29.98996 | -90.25695 | 16 ft | 1 kts | 160° |
| 2026-04-25 21:41 | 29.98967 | -90.25692 | 17 ft | 8 kts | 182° |
| 2026-04-25 21:41 | 29.98888 | -90.25715 | 17 ft | 16 kts | 203° |
| 2026-04-25 21:42 | 29.98814 | -90.25757 | 16 ft | 19 kts | 203° |
| 2026-04-25 21:42 | 29.98777 | -90.25818 | 17 ft | 1 kts | 235° |
| 2026-04-25 21:42 | 29.98773 | -90.25827 | 17 ft | 0 kts | 238° |